Time;durP1;ratioP1;P1;durP2;ratioP2;P2;SDS_P1;SDS_P2;PMS_P1;PMS_P2;Temp;Humidity;BMP_temperature;BMP_pressure;BME280_temperature;BME280_humidity;BME280_pressure;Samples;Min_cycle;Max_cycle;Signal;HPM_P1;HPM_P2
2022/05/08 00:00:49;;;;;;;;;31.00;28.40;;;;;19.35;52.29;101822.53;2088491;28;48081;-59
2022/05/08 00:01:50;;;;;;;;;23.50;22.00;;;;;19.34;52.20;101826.16;2089409;28;47431;-59
2022/05/08 00:02:54;;;;;;;;;27.25;26.25;;;;;19.34;52.18;101826.16;2089272;28;47963;-59
2022/05/08 00:03:54;;;;;;;;;27.80;26.80;;;;;19.31;52.25;101824.47;2088630;28;47794;-60
2022/05/08 00:04:55;;;;;;;;;24.75;24.75;;;;;19.30;52.16;101821.81;2091403;28;47210;-58
2022/05/08 00:05:55;;;;;;;;;22.75;21.50;;;;;19.28;52.27;101821.88;2088791;28;47913;-58
2022/05/08 00:06:56;;;;;;;;;24.00;22.50;;;;;19.25;52.37;101822.00;2097110;28;47870;-59
2022/05/08 00:07:56;;;;;;;;;24.00;24.00;;;;;19.21;52.25;101823.09;2092992;28;47423;-59
2022/05/08 00:08:58;;;;;;;;;23.00;22.00;;;;;19.19;52.70;101826.78;2088230;28;47515;-59
2022/05/08 00:09:58;;;;;;;;;24.00;23.20;;;;;19.16;52.49;101827.75;2090034;28;48148;-58
2022/05/08 00:10:58;;;;;;;;;22.75;21.75;;;;;19.14;52.82;101820.69;2089886;28;47555;-58
2022/05/08 00:11:59;;;;;;;;;23.75;23.50;;;;;19.11;52.30;101827.06;2087937;28;47218;-57
2022/05/08 00:12:59;;;;;;;;;26.25;24.50;;;;;19.10;52.76;101823.50;2071306;28;47668;-59
2022/05/08 00:14:00;;;;;;;;;22.00;22.00;;;;;19.09;52.96;101819.06;2080266;28;45863;-59
2022/05/08 00:15:00;;;;;;;;;23.00;22.50;;;;;19.08;52.77;101821.81;2095855;28;48273;-59
2022/05/08 00:16:02;;;;;;;;;23.50;22.25;;;;;19.06;52.94;101824.56;2094457;28;47217;-58
2022/05/08 00:17:03;;;;;;;;;21.40;20.80;;;;;19.06;52.84;101832.66;2088840;28;47857;-59
2022/05/08 00:18:03;;;;;;;;;24.00;22.75;;;;;19.07;52.87;101820.94;2089871;28;47449;-59
2022/05/08 00:19:04;;;;;;;;;24.50;23.50;;;;;19.07;52.99;101814.69;2088200;28;47670;-57
2022/05/08 00:20:06;;;;;;;;;18.75;17.00;;;;;19.05;52.69;101816.53;2088846;28;47415;-59
2022/05/08 00:21:07;;;;;;;;;22.80;21.60;;;;;19.03;52.86;101813.03;2088095;28;48033;-59
2022/05/08 00:22:07;;;;;;;;;22.50;21.00;;;;;19.01;52.91;101814.91;2092037;28;47224;-58
2022/05/08 00:23:08;;;;;;;;;20.00;20.00;;;;;19.00;52.81;101819.41;2092990;28;47624;-58
2022/05/08 00:24:08;;;;;;;;;24.00;21.75;;;;;18.96;53.17;101815.09;2096984;28;47396;-59
2022/05/08 00:25:09;;;;;;;;;21.50;21.50;;;;;18.96;53.39;101820.47;2094213;28;47540;-59
2022/05/08 00:26:09;;;;;;;;;25.00;25.00;;;;;18.93;53.34;101812.53;2097138;28;47731;-58
2022/05/08 00:27:10;;;;;;;;;22.00;21.00;;;;;18.93;53.40;101817.00;2088554;28;47658;-59
2022/05/08 00:28:10;;;;;;;;;27.00;23.25;;;;;18.91;53.25;101817.06;2088910;28;46090;-58
2022/05/08 00:29:11;;;;;;;;;24.75;23.50;;;;;18.91;53.39;101814.38;2087404;28;47155;-59
2022/05/08 00:30:12;;;;;;;;;28.50;26.50;;;;;18.89;53.50;101813.56;2088521;28;47844;-59
2022/05/08 00:31:12;;;;;;;;;24.00;24.00;;;;;18.88;53.16;101813.63;2088412;28;47665;-59
2022/05/08 00:32:13;;;;;;;;;23.75;21.75;;;;;18.87;53.47;101810.06;2088496;28;47692;-58
2022/05/08 00:33:13;;;;;;;;;24.50;23.00;;;;;18.86;53.55;101811.00;2093679;28;47648;-58
2022/05/08 00:34:14;;;;;;;;;26.50;25.25;;;;;18.83;53.20;101813.81;2094327;28;47346;-59
2022/05/08 00:35:14;;;;;;;;;22.00;21.75;;;;;18.82;53.22;101814.75;2096584;28;47522;-59
2022/05/08 00:36:15;;;;;;;;;21.50;21.50;;;;;18.83;53.68;101815.63;2094175;28;47505;-60
2022/05/08 00:37:15;;;;;;;;;26.50;25.75;;;;;18.83;53.57;101821.03;2095098;28;47474;-60
2022/05/08 00:38:15;;;;;;;;;22.00;18.00;;;;;18.81;53.82;101816.56;2095632;28;47447;-59
2022/05/08 00:39:20;;;;;;;;;30.50;26.00;;;;;18.82;53.58;101812.06;2093882;28;47979;-59
2022/05/08 00:40:20;;;;;;;;;24.20;23.80;;;;;18.80;53.83;101820.22;2091980;28;48089;-58
2022/05/08 00:41:21;;;;;;;;;23.50;23.50;;;;;18.79;53.72;101814.84;2096450;28;47306;-58
2022/05/08 00:42:22;;;;;;;;;21.75;21.75;;;;;18.76;53.63;101817.66;2088728;28;47430;-59
2022/05/08 00:43:31;;;;;;;;;24.50;24.50;;;;;18.76;53.62;101820.38;2086003;28;47549;-59
2022/05/08 00:44:32;;;;;;;;;24.80;24.00;;;;;18.76;53.65;101814.97;2085553;28;47551;-58
2022/05/08 00:45:33;;;;;;;;;23.60;23.60;;;;;18.75;53.72;101814.09;2093466;27;47605;-58
2022/05/08 00:46:34;;;;;;;;;24.50;23.75;;;;;18.75;53.66;101818.59;2096461;28;48141;-59
2022/05/08 00:47:35;;;;;;;;;24.00;24.00;;;;;18.74;53.50;101816.84;2081815;28;47769;-60
2022/05/08 00:48:36;;;;;;;;;19.00;19.00;;;;;18.73;53.77;101817.78;2078110;28;47198;-59
2022/05/08 00:49:36;;;;;;;;;28.00;25.80;;;;;18.70;53.53;101817.91;2095818;28;48137;-56
2022/05/08 00:50:37;;;;;;;;;24.75;24.75;;;;;18.69;53.72;101814.34;2096330;28;47724;-58
2022/05/08 00:51:38;;;;;;;;;22.00;20.75;;;;;18.70;53.78;101823.31;2096445;28;47929;-58
2022/05/08 00:52:38;;;;;;;;;25.00;23.60;;;;;18.69;53.79;101818.84;2094114;28;48045;-59
2022/05/08 00:53:42;;;;;;;;;27.25;26.75;;;;;18.69;53.83;101817.03;2094175;28;47636;-58
2022/05/08 00:54:43;;;;;;;;;21.40;21.00;;;;;18.68;53.52;101822.47;2096387;28;47216;-60
2022/05/08 00:55:43;;;;;;;;;23.40;20.20;;;;;18.68;53.81;101819.78;2088957;28;47555;-59
2022/05/08 00:56:44;;;;;;;;;21.25;21.00;;;;;18.67;53.86;101820.69;2088264;28;47888;-60
2022/05/08 00:57:44;;;;;;;;;24.75;22.00;;;;;18.65;53.84;101817.19;2096634;28;47844;-59
2022/05/08 00:58:48;;;;;;;;;18.00;18.00;;;;;18.63;53.97;101819.03;2093659;28;47602;-59
2022/05/08 00:59:48;;;;;;;;;19.60;19.60;;;;;18.61;54.21;101824.47;2095391;28;48081;-59
2022/05/08 01:00:49;;;;;;;;;26.00;22.50;;;;;18.60;53.94;101819.16;2094913;28;47925;-59
2022/05/08 01:01:49;;;;;;;;;21.00;19.25;;;;;18.59;54.17;101815.59;2091330;28;47339;-59
2022/05/08 01:02:50;;;;;;;;;18.75;18.25;;;;;18.58;53.79;101821.03;2096642;28;46481;-59
2022/05/08 01:03:50;;;;;;;;;19.00;19.00;;;;;18.57;53.87;101819.28;2093665;28;47222;-59
2022/05/08 01:04:51;;;;;;;;;20.50;20.50;;;;;18.56;54.12;101826.47;2092679;28;47173;-58
2022/05/08 01:05:54;;;;;;;;;24.00;22.00;;;;;18.56;54.16;101817.53;2096855;28;47596;-58
2022/05/08 01:06:54;;;;;;;;;25.00;23.00;;;;;18.53;53.93;101824.75;2093669;28;48383;-58
2022/05/08 01:07:55;;;;;;;;;23.25;21.00;;;;;18.52;54.00;101825.69;2094883;28;47848;-60
2022/05/08 01:08:55;;;;;;;;;20.00;20.00;;;;;18.51;53.95;101825.75;2095247;28;47859;-59
2022/05/08 01:09:56;;;;;;;;;23.25;20.75;;;;;18.49;53.97;101816.88;2093863;28;47639;-60
2022/05/08 01:10:58;;;;;;;;;24.20;24.20;;;;;18.48;53.69;101821.38;2096019;28;47843;-58
2022/05/08 01:11:59;;;;;;;;;20.80;18.80;;;;;18.48;54.16;101818.69;2091780;28;47594;-59
2022/05/08 01:12:59;;;;;;;;;22.25;21.25;;;;;18.48;54.12;101823.19;2088451;28;47076;-59
2022/05/08 01:13:59;;;;;;;;;20.75;20.25;;;;;18.49;54.03;101822.25;2095848;28;47315;-60
2022/05/08 01:15:18;;;;;;;;;20.00;18.50;;;;;18.48;54.25;101813.31;2089023;28;47951;-60
2022/05/08 01:16:20;;;;;;;;;22.40;20.00;;;;;18.46;54.29;101815.19;2089539;28;47967;-58
2022/05/08 01:17:21;;;;;;;;;20.40;19.40;;;;;18.47;54.07;101816.94;2096367;28;47713;-59
2022/05/08 01:18:22;;;;;;;;;19.00;17.50;;;;;18.45;54.08;101815.25;2088214;28;47406;-58
2022/05/08 01:19:22;;;;;;;;;22.50;20.50;;;;;18.43;54.02;101815.28;2087613;28;47764;-59
2022/05/08 01:20:23;;;;;;;;;22.25;21.50;;;;;18.42;54.10;101815.31;2087940;28;47536;-59
2022/05/08 01:21:41;;;;;;;;;19.75;19.25;;;;;18.39;53.99;101816.31;2088009;28;47481;-60
2022/05/08 01:22:42;;;;;;;;;22.60;21.40;;;;;18.38;54.13;101811.88;2096571;28;48328;-58
2022/05/08 01:23:43;;;;;;;;;22.25;21.75;;;;;18.37;54.17;101811.94;2089326;28;47747;-59
2022/05/08 01:24:43;;;;;;;;;21.60;19.80;;;;;18.35;54.14;101814.69;2090040;28;48097;-59
2022/05/08 01:25:52;;;;;;;;;18.00;18.00;;;;;18.33;54.33;101811.19;2096210;28;48171;-59
2022/05/08 01:26:52;;;;;;;;;20.80;20.40;;;;;18.32;54.09;101819.31;2091407;28;47744;-60
2022/05/08 01:27:53;;;;;;;;;19.75;18.25;;;;;18.30;54.10;101805.94;2088681;28;47847;-58
2022/05/08 01:28:53;;;;;;;;;24.25;19.75;;;;;18.29;54.20;101809.53;2096521;28;47200;-60
2022/05/08 01:29:54;;;;;;;;;18.00;18.00;;;;;18.28;54.29;101815.84;2092994;28;47427;-59
2022/05/08 01:30:55;;;;;;;;;21.75;20.00;;;;;18.28;54.28;101812.28;2090363;28;47513;-59
2022/05/08 01:31:56;;;;;;;;;17.40;17.20;;;;;18.25;54.27;101805.19;2087164;28;48246;-60
2022/05/08 01:32:58;;;;;;;;;17.00;17.00;;;;;18.24;54.07;101806.13;2093800;28;47803;-57
2022/05/08 01:33:58;;;;;;;;;18.00;17.20;;;;;18.24;54.41;101806.13;2095413;28;47490;-59
2022/05/08 01:34:59;;;;;;;;;26.00;22.50;;;;;18.22;54.28;101803.50;2095087;28;47952;-59
2022/05/08 01:36:01;;;;;;;;;20.00;19.75;;;;;18.21;54.28;101806.25;2093901;28;47653;-58
2022/05/08 01:37:03;;;;;;;;;18.20;16.60;;;;;18.20;54.08;101805.38;2096453;28;47750;-59
2022/05/08 01:38:05;;;;;;;;;20.60;19.20;;;;;18.19;54.25;101806.31;2093713;28;47470;-59
2022/05/08 01:39:06;;;;;;;;;22.40;19.60;;;;;18.18;54.31;101809.06;2094240;28;47982;-57
2022/05/08 01:40:07;;;;;;;;;16.75;16.25;;;;;18.15;54.50;101807.34;2093206;28;47431;-59
2022/05/08 01:41:08;;;;;;;;;19.20;19.20;;;;;18.15;54.43;101807.34;2090463;28;48013;-58
2022/05/08 01:42:09;;;;;;;;;19.00;19.00;;;;;18.14;54.39;101810.09;2087667;28;48073;-59
2022/05/08 01:43:10;;;;;;;;;16.50;16.50;;;;;18.14;54.65;101818.13;2087910;28;47643;-59
2022/05/08 01:44:11;;;;;;;;;20.20;19.00;;;;;18.14;54.58;101810.09;2090542;28;47633;-59
2022/05/08 01:45:12;;;;;;;;;21.75;21.00;;;;;18.14;54.55;101813.66;2095847;28;47329;-59
2022/05/08 01:46:12;;;;;;;;;19.80;18.20;;;;;18.14;54.40;101815.47;2093992;28;47618;-59
2022/05/08 01:48:32;;;;;;;;;21.40;20.40;;;;;18.15;54.56;101811.84;2080721;28;47541;-59
2022/05/08 01:49:33;;;;;;;;;21.00;20.00;;;;;18.15;54.61;101811.84;2095571;28;48116;-60
2022/05/08 01:50:33;;;;;;;;;22.50;21.50;;;;;18.15;54.53;101818.09;2093255;28;47558;-60
2022/05/08 01:51:33;;;;;;;;;21.00;21.00;;;;;18.14;54.70;101810.97;2095526;28;47710;-58
2022/05/08 01:52:34;;;;;;;;;21.25;21.00;;;;;18.14;54.62;101810.09;2095178;28;47811;-59
2022/05/08 01:53:35;;;;;;;;;18.50;18.50;;;;;18.13;54.53;101813.69;2084134;28;47878;-58
2022/05/08 01:54:35;;;;;;;;;22.00;20.40;;;;;18.12;54.51;101814.63;2086470;28;47650;-59
2022/05/08 01:55:36;;;;;;;;;21.25;20.25;;;;;18.10;54.57;101805.75;2089908;28;48008;-58
2022/05/08 01:56:37;;;;;;;;;20.00;20.00;;;;;18.07;54.61;101808.56;2087518;28;47560;-57
2022/05/08 01:57:37;;;;;;;;;20.75;19.75;;;;;18.06;54.71;101815.75;2095948;28;47790;-60
2022/05/08 01:58:37;;;;;;;;;21.00;21.00;;;;;18.06;54.61;101806.81;2093679;28;48004;-58
2022/05/08 01:59:38;;;;;;;;;22.25;22.25;;;;;18.05;54.79;101818.50;2095994;28;47737;-59
2022/05/08 02:00:38;;;;;;;;;25.75;22.75;;;;;18.05;54.79;101811.31;2085879;28;47179;-58
2022/05/08 02:01:39;;;;;;;;;23.00;22.50;;;;;18.04;54.72;101804.19;2088686;28;48005;-59
2022/05/08 02:02:40;;;;;;;;;25.00;22.00;;;;;18.04;54.83;101811.34;2095861;28;47614;-59
2022/05/08 02:03:41;;;;;;;;;23.00;22.00;;;;;18.03;54.88;101812.25;2089440;28;48073;-59
2022/05/08 02:04:41;;;;;;;;;21.50;21.50;;;;;18.03;54.97;101814.94;2087732;28;47372;-59
2022/05/08 02:05:44;;;;;;;;;21.50;20.00;;;;;18.03;54.88;101812.25;2086732;28;48268;-59
2022/05/08 02:06:49;;;;;;;;;20.60;20.20;;;;;18.02;54.71;101814.06;2090026;28;47680;-59
2022/05/08 02:07:50;;;;;;;;;21.20;20.40;;;;;18.02;54.81;101805.16;2094341;28;48225;-59
2022/05/08 02:08:52;;;;;;;;;22.00;20.75;;;;;18.02;54.90;101811.38;2094908;28;47711;-59
2022/05/08 02:09:52;;;;;;;;;19.20;19.20;;;;;18.01;54.67;101804.28;2093628;28;47653;-59
2022/05/08 02:10:53;;;;;;;;;24.00;22.50;;;;;18.02;54.73;101811.38;2095925;28;47989;-58
2022/05/08 02:11:53;;;;;;;;;19.50;19.50;;;;;18.01;54.83;101811.44;2093694;28;47918;-57
2022/05/08 02:12:54;;;;;;;;;21.50;21.50;;;;;18.02;54.83;101818.56;2092560;28;47433;-59
2022/05/08 02:13:54;;;;;;;;;28.00;22.25;;;;;18.01;54.75;101809.63;2095885;28;47702;-59
2022/05/08 02:14:55;;;;;;;;;21.00;19.50;;;;;18.01;54.60;101816.81;2092418;28;47681;-59
2022/05/08 02:15:55;;;;;;;;;24.50;22.00;;;;;18.00;54.87;101812.38;2094458;28;47398;-58
2022/05/08 02:16:55;;;;;;;;;24.75;24.00;;;;;17.99;54.75;101808.81;2094811;28;47428;-57
2022/05/08 02:18:01;;;;;;;;;21.00;20.50;;;;;17.99;54.86;101818.69;2092578;28;47632;-59
2022/05/08 02:19:02;;;;;;;;;27.60;22.40;;;;;17.99;54.88;101810.63;2095421;28;48087;-58
2022/05/08 02:20:06;;;;;;;;;24.80;22.20;;;;;17.98;54.97;101809.75;2095985;28;47606;-57
2022/05/08 02:21:06;;;;;;;;;18.40;15.20;;;;;17.97;54.87;101812.50;2095048;28;47314;-58
2022/05/08 02:22:07;;;;;;;;;26.25;24.75;;;;;17.96;55.07;101817.00;2094290;28;47811;-58
2022/05/08 02:23:08;;;;;;;;;24.25;22.25;;;;;17.94;54.86;101818.88;2093459;28;47569;-59
2022/05/08 02:24:09;;;;;;;;;21.60;20.80;;;;;17.92;54.87;101816.22;2095710;28;47331;-58
2022/05/08 02:25:09;;;;;;;;;24.00;21.50;;;;;17.90;54.73;101815.38;2090269;28;47661;-59
2022/05/08 02:26:10;;;;;;;;;25.25;22.75;;;;;17.89;54.66;101807.38;2087512;28;47512;-58
2022/05/08 02:27:10;;;;;;;;;28.50;26.00;;;;;17.88;54.84;101817.25;2087518;28;47729;-59
2022/05/08 02:28:10;;;;;;;;;26.25;23.75;;;;;17.88;55.01;101819.06;2091276;28;46487;-59
2022/05/08 02:29:11;;;;;;;;;24.25;21.75;;;;;17.87;54.96;101820.00;2095623;28;47926;-59
2022/05/08 02:30:12;;;;;;;;;30.75;29.00;;;;;17.85;55.08;101816.47;2091013;28;47571;-58
2022/05/08 02:31:12;;;;;;;;;28.25;26.50;;;;;17.84;55.06;101825.47;2087853;28;47596;-58
2022/05/08 02:32:12;;;;;;;;;24.00;21.50;;;;;17.83;54.86;101823.72;2087609;28;47480;-59
2022/05/08 02:33:13;;;;;;;;;28.00;26.50;;;;;17.83;54.93;101827.28;2092875;28;47329;-58
2022/05/08 02:34:13;;;;;;;;;25.75;24.00;;;;;17.81;54.74;101826.47;2095522;28;48066;-58
2022/05/08 02:35:14;;;;;;;;;26.00;25.25;;;;;17.78;54.86;101831.91;2095807;28;47139;-58
2022/05/08 02:36:14;;;;;;;;;27.00;27.00;;;;;17.77;55.28;101824.78;2089838;28;47337;-58
2022/05/08 02:37:14;;;;;;;;;26.75;24.00;;;;;17.76;55.07;101824.84;2087679;28;47526;-58
2022/05/08 02:38:15;;;;;;;;;24.25;22.00;;;;;17.76;55.21;101819.47;2094784;28;47463;-58
2022/05/08 02:39:15;;;;;;;;;27.00;26.50;;;;;17.75;55.34;101828.47;2092902;28;47162;-58
2022/05/08 02:40:16;;;;;;;;;29.00;26.00;;;;;17.75;54.95;101825.78;2090992;28;47941;-58
2022/05/08 02:41:17;;;;;;;;;25.80;24.60;;;;;17.74;54.95;101826.72;2092413;28;47505;-58
2022/05/08 02:42:17;;;;;;;;;28.00;24.00;;;;;17.72;54.95;101826.75;2092860;28;47651;-59
2022/05/08 02:43:20;;;;;;;;;24.25;23.25;;;;;17.71;55.12;101822.31;2095635;28;48036;-58
2022/05/08 02:44:21;;;;;;;;;22.60;22.60;;;;;17.71;55.07;101826.81;2090124;28;47624;-58
2022/05/08 02:45:23;;;;;;;;;25.25;23.75;;;;;17.68;55.37;101821.53;2087811;28;45466;-59
2022/05/08 02:46:23;;;;;;;;;25.00;24.80;;;;;17.66;55.33;101826.94;2094942;28;47799;-59
2022/05/08 02:47:24;;;;;;;;;25.75;23.50;;;;;17.64;55.20;101824.28;2091626;28;47573;-58
2022/05/08 02:48:24;;;;;;;;;25.50;24.75;;;;;17.63;55.44;101835.09;2087491;28;47287;-58
2022/05/08 02:49:24;;;;;;;;;25.25;25.00;;;;;17.60;55.21;101830.69;2093269;28;47537;-58
2022/05/08 02:50:26;;;;;;;;;25.50;25.50;;;;;17.60;55.36;101830.69;2091593;28;47641;-58
2022/05/08 02:51:26;;;;;;;;;27.40;24.60;;;;;17.56;55.56;101826.38;2087229;28;47554;-58
2022/05/08 02:52:26;;;;;;;;;24.00;23.00;;;;;17.56;55.77;101828.19;2091827;28;47849;-59
2022/05/08 02:53:27;;;;;;;;;23.50;23.50;;;;;17.54;55.61;101833.59;2095779;28;47358;-58
2022/05/08 02:54:27;;;;;;;;;23.75;22.50;;;;;17.52;55.68;101830.06;2096158;28;47967;-59
2022/05/08 02:59:24;;;;;;;;;28.20;26.80;;;;;17.37;55.98;101838.63;2086701;28;47718;-60
2022/05/08 03:00:26;;;;;;;;;23.00;21.50;;;;;17.34;55.69;101831.56;2090272;28;47960;-58
2022/05/08 03:01:26;;;;;;;;;28.00;25.80;;;;;17.31;55.90;101830.78;2094143;28;48300;-59
2022/05/08 03:02:27;;;;;;;;;24.75;24.75;;;;;17.27;56.30;101837.16;2083371;28;45977;-59
2022/05/08 03:03:27;;;;;;;;;26.75;25.75;;;;;17.23;56.21;101836.38;2085365;28;47979;-59
2022/05/08 03:04:28;;;;;;;;;27.50;25.25;;;;;17.23;55.88;101835.50;2096088;28;47377;-59
2022/05/08 03:05:28;;;;;;;;;20.75;20.50;;;;;17.20;56.46;101838.28;2087545;28;47775;-57
2022/05/08 03:06:28;;;;;;;;;28.00;26.00;;;;;17.19;56.56;101840.09;2087860;28;47208;-59
2022/05/08 03:07:29;;;;;;;;;26.75;25.25;;;;;17.19;56.47;101840.09;2096002;28;47304;-59
2022/05/08 03:08:29;;;;;;;;;33.50;29.00;;;;;17.18;56.55;101835.66;2092974;28;47950;-56
2022/05/08 03:09:30;;;;;;;;;31.25;29.25;;;;;17.18;56.45;101840.13;2094063;28;47465;-60
2022/05/08 03:11:25;;;;;;;;;27.75;27.75;;;;;17.15;56.50;101842.91;2092972;28;47204;-59
2022/05/08 03:11:51;;;;;;;;;32.60;30.40;;;;;17.13;56.69;101847.44;2092369;28;47679;-59
2022/05/08 03:12:51;;;;;;;;;34.75;32.00;;;;;17.11;56.67;101842.13;2096402;28;46541;-58
2022/05/08 03:13:59;;;;;;;;;32.25;29.00;;;;;17.12;56.68;101848.34;2097057;28;47672;-59
2022/05/08 03:14:59;;;;;;;;;33.00;31.00;;;;;17.11;56.54;101843.94;2089036;28;48132;-59
2022/05/08 03:15:59;;;;;;;;;33.50;31.50;;;;;17.11;56.64;101847.47;2088794;28;47587;-58
2022/05/08 03:17:00;;;;;;;;;33.75;29.75;;;;;17.10;56.87;101844.84;2096180;28;48221;-58
2022/05/08 03:18:00;;;;;;;;;37.25;33.00;;;;;17.09;56.66;101843.09;2094100;28;47267;-58
2022/05/08 03:19:01;;;;;;;;;38.50;33.00;;;;;17.09;56.73;101841.28;2096851;28;47371;-58
2022/05/08 03:20:02;;;;;;;;;30.60;29.60;;;;;17.09;56.69;101843.97;2088571;28;47683;-58
2022/05/08 03:21:02;;;;;;;;;31.50;30.75;;;;;17.10;56.98;101850.22;2096549;28;47371;-59
2022/05/08 03:22:03;;;;;;;;;36.25;33.75;;;;;17.08;57.25;101842.22;2102982;27;47558;-59
2022/05/08 03:23:04;;;;;;;;;44.25;36.00;;;;;17.06;56.96;101839.59;2088624;28;47534;-59
2022/05/08 03:24:04;;;;;;;;;40.50;33.75;;;;;17.04;56.93;101840.56;2095675;28;47486;-59
2022/05/08 03:25:05;;;;;;;;;38.75;31.75;;;;;17.05;56.92;101839.63;2089282;28;47820;-59
2022/05/08 03:26:07;;;;;;;;;44.00;36.75;;;;;17.04;57.17;101844.13;2088573;28;47221;-58
2022/05/08 03:27:07;;;;;;;;;37.80;32.20;;;;;17.02;57.03;101845.97;2097454;28;47852;-59
2022/05/08 03:28:07;;;;;;;;;40.75;35.00;;;;;17.01;57.21;101840.63;2092065;28;47382;-59
2022/05/08 03:29:08;;;;;;;;;41.75;34.00;;;;;17.00;57.25;101845.13;2088542;28;47709;-59
2022/05/08 03:30:09;;;;;;;;;40.25;35.00;;;;;16.99;57.31;101845.19;2094174;28;47738;-59
2022/05/08 03:31:10;;;;;;;;;40.40;35.60;;;;;16.97;57.36;101839.88;2088084;28;47784;-59
2022/05/08 03:32:10;;;;;;;;;37.50;33.25;;;;;16.97;57.07;101844.34;2079001;28;47653;-59
2022/05/08 03:33:11;;;;;;;;;42.25;35.75;;;;;16.96;57.50;101846.16;2087214;28;48015;-59
2022/05/08 03:34:11;;;;;;;;;45.75;38.25;;;;;16.95;57.33;101838.16;2093881;28;47561;-59
2022/05/08 03:35:12;;;;;;;;;41.00;35.25;;;;;16.96;57.26;101842.59;2097290;28;47704;-59
2022/05/08 03:36:12;;;;;;;;;35.75;32.25;;;;;16.94;57.66;101834.59;2094178;28;47448;-57
2022/05/08 03:37:13;;;;;;;;;42.50;37.25;;;;;16.92;57.19;101839.13;2095751;28;47505;-60
2022/05/08 03:38:13;;;;;;;;;44.50;36.50;;;;;16.92;57.29;101840.94;2088171;28;46414;-59
2022/05/08 03:39:13;;;;;;;;;38.25;33.50;;;;;16.88;57.57;101840.13;2086318;28;47461;-59
2022/05/08 03:40:14;;;;;;;;;41.00;34.50;;;;;16.87;57.34;101840.19;2084424;28;47628;-59
2022/05/08 03:41:17;;;;;;;;;43.25;35.75;;;;;16.85;57.87;101832.19;2093364;28;47512;-56
2022/05/08 03:42:18;;;;;;;;;45.60;37.60;;;;;16.83;57.89;101836.72;2094148;28;47446;-58
2022/05/08 03:43:18;;;;;;;;;43.00;37.25;;;;;16.82;57.99;101836.78;2096825;28;48162;-58
2022/05/08 03:44:18;;;;;;;;;42.00;36.75;;;;;16.80;57.86;101834.13;2092269;28;46963;-57
2022/05/08 03:45:20;;;;;;;;;39.75;34.50;;;;;16.80;57.64;101833.25;2095155;28;48073;-58
2022/05/08 03:46:20;;;;;;;;;43.20;37.40;;;;;16.80;57.91;101831.47;2078580;28;48274;-59
2022/05/08 03:47:20;;;;;;;;;47.00;37.75;;;;;16.79;57.86;101837.75;2078891;28;47791;-59
2022/05/08 03:48:21;;;;;;;;;45.25;38.25;;;;;16.79;58.01;101826.16;2088682;28;47528;-57
2022/05/08 03:49:22;;;;;;;;;45.00;35.00;;;;;16.80;58.12;101841.31;2093685;28;47188;-58
2022/05/08 03:50:22;;;;;;;;;46.50;37.75;;;;;16.80;58.35;101836.81;2094301;28;47698;-59
2022/05/08 03:51:23;;;;;;;;;47.75;38.75;;;;;16.81;58.17;101837.69;2096840;28;47800;-57
2022/05/08 03:52:23;;;;;;;;;44.50;37.50;;;;;16.80;57.94;101836.81;2094597;28;47498;-59
2022/05/08 03:53:24;;;;;;;;;43.25;36.50;;;;;16.80;58.19;101831.47;2095528;28;47777;-58
2022/05/08 03:54:24;;;;;;;;;43.75;38.00;;;;;16.80;58.25;101831.47;2095934;28;47790;-58
2022/05/08 03:55:25;;;;;;;;;45.25;37.75;;;;;16.79;58.09;101834.19;2092332;28;48058;-59
2022/05/08 03:56:27;;;;;;;;;41.60;35.80;;;;;16.77;57.81;101832.44;2088654;28;47818;-59
2022/05/08 03:57:29;;;;;;;;;45.80;37.40;;;;;16.80;58.01;101834.13;2091942;28;48060;-59
2022/05/08 03:58:29;;;;;;;;;46.40;38.80;;;;;16.80;58.33;101836.81;2094331;28;47470;-59
2022/05/08 03:59:31;;;;;;;;;41.80;34.60;;;;;16.80;58.31;101836.81;2096754;28;47624;-59
2022/05/08 04:00:31;;;;;;;;;44.00;37.40;;;;;16.80;57.83;101834.13;2097024;28;47968;-59
2022/05/08 04:01:31;;;;;;;;;44.50;38.00;;;;;16.79;57.94;101829.69;2095042;28;48269;-58
2022/05/08 04:02:32;;;;;;;;;42.75;37.50;;;;;16.78;58.09;101825.28;2080426;28;47405;-57
2022/05/08 04:03:32;;;;;;;;;49.25;40.50;;;;;16.79;58.05;101840.44;2088326;28;47910;-59
2022/05/08 04:04:33;;;;;;;;;44.00;37.75;;;;;16.77;58.39;101829.75;2096250;28;47118;-59
2022/05/08 04:05:34;;;;;;;;;43.20;36.80;;;;;16.78;57.97;101838.66;2089855;28;48235;-59
2022/05/08 04:06:34;;;;;;;;;48.75;41.00;;;;;16.75;58.19;101834.25;2089117;28;47536;-59
2022/05/08 04:07:37;;;;;;;;;49.00;40.00;;;;;16.72;58.31;101841.50;2096999;28;47839;-59
2022/05/08 04:08:37;;;;;;;;;45.40;37.80;;;;;16.71;58.54;101850.47;2093504;28;47628;-58
2022/05/08 04:09:38;;;;;;;;;38.50;35.00;;;;;16.67;58.48;101840.75;2093795;28;47750;-58
2022/05/08 04:10:38;;;;;;;;;46.00;38.75;;;;;16.66;58.49;101839.88;2094935;28;47425;-58
2022/05/08 04:11:39;;;;;;;;;49.00;41.00;;;;;16.65;58.76;101843.47;2088577;28;47490;-58
2022/05/08 04:12:42;;;;;;;;;46.25;39.25;;;;;16.63;58.91;101845.28;2088567;28;47676;-58
2022/05/08 04:13:42;;;;;;;;;47.40;40.20;;;;;16.62;58.93;101842.66;2095389;28;47786;-59
2022/05/08 04:14:43;;;;;;;;;47.25;38.75;;;;;16.62;58.57;101845.34;2091761;28;47531;-58
2022/05/08 04:17:03;;;;;;;;;44.80;38.00;;;;;16.59;58.54;101848.13;2095404;28;47467;-59
2022/05/08 04:18:03;;;;;;;;;46.50;38.00;;;;;16.59;58.47;101849.00;2096116;28;47404;-58
2022/05/08 04:19:06;;;;;;;;;45.00;37.50;;;;;16.58;58.93;101844.56;2097049;28;46265;-59
2022/05/08 04:20:08;;;;;;;;;47.40;39.20;;;;;16.56;58.68;101846.41;2090233;28;47576;-59
2022/05/08 04:21:09;;;;;;;;;49.40;39.80;;;;;16.55;58.93;101847.34;2085029;28;47948;-57
2022/05/08 04:24:47;;;;;;;;;50.60;42.40;;;;;16.53;59.21;101843.81;2093834;28;47508;-57
2022/05/08 04:25:54;;;;;;;;;50.25;41.25;;;;;16.52;58.92;101843.88;2096889;28;47403;-58
2022/05/08 04:26:54;;;;;;;;;48.20;41.00;;;;;16.51;58.93;101840.28;2094757;28;47782;-58
2022/05/08 04:27:55;;;;;;;;;48.50;40.00;;;;;16.53;59.27;101848.31;2092347;28;46930;-59
2022/05/08 04:28:55;;;;;;;;;47.00;39.75;;;;;16.54;58.99;101850.06;2088583;28;47480;-58
2022/05/08 04:29:55;;;;;;;;;46.75;40.25;;;;;16.53;58.94;101842.94;2092244;28;48084;-58
2022/05/08 04:30:56;;;;;;;;;48.75;40.25;;;;;16.54;58.89;101850.06;2090504;28;47357;-59
2022/05/08 04:31:57;;;;;;;;;49.00;41.00;;;;;16.54;59.16;101844.72;2089030;28;47879;-58
2022/05/08 04:32:57;;;;;;;;;49.80;40.80;;;;;16.53;58.78;101848.31;2094214;28;47662;-59
2022/05/08 04:33:58;;;;;;;;;50.00;41.75;;;;;16.51;58.89;101848.31;2095824;28;47799;-58
2022/05/08 04:34:58;;;;;;;;;48.75;40.50;;;;;16.50;59.34;101849.25;2094546;28;47304;-58
2022/05/08 04:35:58;;;;;;;;;51.00;42.25;;;;;16.48;58.84;101851.97;2093436;28;47651;-58
2022/05/08 04:36:59;;;;;;;;;46.25;39.00;;;;;16.46;59.10;101852.94;2096933;28;47288;-58
2022/05/08 04:37:59;;;;;;;;;49.75;40.00;;;;;16.42;59.49;101851.28;2093323;28;48064;-58
2022/05/08 04:38:59;;;;;;;;;50.25;43.00;;;;;16.40;59.20;101848.66;2094115;28;47983;-58
2022/05/08 04:40:00;;;;;;;;;47.00;40.00;;;;;16.38;59.26;101846.91;2087855;28;47381;-58
2022/05/08 04:41:00;;;;;;;;;50.50;42.75;;;;;16.37;59.05;101858.56;2091456;28;47412;-58
2022/05/08 04:42:01;;;;;;;;;49.00;41.50;;;;;16.36;59.39;101846.97;2095503;28;47687;-58
2022/05/08 04:43:02;;;;;;;;;50.00;41.80;;;;;16.37;59.18;101853.19;2070188;28;47711;-59
2022/05/08 04:44:03;;;;;;;;;51.50;43.00;;;;;16.37;59.28;101855.88;2072516;28;47413;-58
2022/05/08 04:45:04;;;;;;;;;52.00;42.60;;;;;16.36;59.71;101848.75;2096545;28;47686;-58
2022/05/08 04:46:04;;;;;;;;;52.75;43.25;;;;;16.37;59.71;101851.41;2092917;28;47615;-58
2022/05/08 04:47:05;;;;;;;;;55.25;45.50;;;;;16.37;59.75;101853.19;2093300;28;47920;-57